Time;durP1;ratioP1;P1;durP2;ratioP2;P2;SDS_P1;SDS_P2;PMS_P1;PMS_P2;Temp;Humidity;BMP_temperature;BMP_pressure;BME280_temperature;BME280_humidity;BME280_pressure;Samples;Min_cycle;Max_cycle;Signal;HPM_P1;HPM_P2
2022/08/18 00:00:37;;;;;;;11.43;8.15;;;;;;;18.90;100.00;100495.25;5010533;28;20417;-82
2022/08/18 00:03:11;;;;;;;12.95;8.57;;;;;;;18.91;100.00;100486.63;4994370;28;20413;-83
2022/08/18 00:05:44;;;;;;;11.98;8.60;;;;;;;18.94;100.00;100493.41;4994239;28;20425;-82
2022/08/18 00:08:17;;;;;;;12.27;8.38;;;;;;;18.90;100.00;100485.00;4999064;28;20427;-83
2022/08/18 00:10:50;;;;;;;14.93;8.75;;;;;;;18.86;100.00;100487.63;5010734;28;20423;-83
2022/08/18 00:13:25;;;;;;;12.13;8.13;;;;;;;18.81;100.00;100481.50;5031010;28;20421;-82
2022/08/18 00:15:58;;;;;;;13.20;8.50;;;;;;;18.74;100.00;100471.06;5033758;28;20806;-84
2022/08/18 00:18:31;;;;;;;13.45;8.45;;;;;;;18.79;100.00;100489.31;5033408;28;20960;-83
2022/08/18 00:21:06;;;;;;;12.80;8.60;;;;;;;18.77;100.00;100489.66;5033677;28;20422;-82
2022/08/18 00:23:39;;;;;;;12.60;9.00;;;;;;;18.77;100.00;100480.59;5051505;28;20421;-82
2022/08/18 00:26:12;;;;;;;12.30;8.73;;;;;;;18.70;100.00;100476.44;5049939;28;20425;-83
2022/08/18 00:28:46;;;;;;;11.77;8.82;;;;;;;18.57;100.00;100458.25;5051371;28;20425;-83
2022/08/18 00:31:20;;;;;;;13.35;9.48;;;;;;;18.72;100.00;100475.31;5050213;28;20413;-85
2022/08/18 00:33:53;;;;;;;13.85;9.20;;;;;;;18.64;100.00;100468.72;5050241;28;20410;-83
2022/08/18 00:36:26;;;;;;;14.80;9.20;;;;;;;18.75;100.00;100480.13;5033379;28;20428;-82
2022/08/18 00:38:59;;;;;;;12.88;9.23;;;;;;;18.74;100.00;100481.25;5032875;28;20409;-83
2022/08/18 00:41:32;;;;;;;13.48;8.63;;;;;;;18.70;100.00;100479.19;5051621;28;20420;-83
2022/08/18 00:44:07;;;;;;;13.13;9.05;;;;;;;18.63;100.00;100481.69;5033187;28;20954;-82
2022/08/18 00:46:40;;;;;;;16.55;9.07;;;;;;;18.64;100.00;100471.47;5050098;28;20789;-83
2022/08/18 00:49:15;;;;;;;13.50;9.20;;;;;;;18.64;100.00;100475.06;5032976;28;20470;-82
2022/08/18 00:51:49;;;;;;;12.80;9.07;;;;;;;18.56;100.00;100470.44;5032854;28;20409;-82
2022/08/18 00:54:20;;;;;;;12.68;8.93;;;;;;;18.55;100.00;100465.22;5051419;28;20405;-83
2022/08/18 00:56:59;;;;;;;11.73;8.88;;;;;;;18.52;100.00;100472.25;5032716;28;20423;-83
2022/08/18 00:59:41;;;;;;;12.05;8.30;;;;;;;18.55;100.00;100473.50;5051103;28;20476;-83
2022/08/18 01:02:18;;;;;;;11.38;8.40;;;;;;;18.53;100.00;100473.84;5048927;28;20424;-82
2022/08/18 01:04:56;;;;;;;11.60;8.80;;;;;;;18.41;100.00;100471.88;5038315;28;20421;-82
2022/08/18 01:07:35;;;;;;;11.73;8.00;;;;;;;18.41;100.00;100471.03;4993455;28;20428;-84
2022/08/18 01:10:04;;;;;;;11.47;7.87;;;;;;;18.23;100.00;100448.34;4993936;28;20455;-84
2022/08/18 01:12:37;;;;;;;11.43;8.23;;;;;;;18.29;100.00;100463.53;5009983;28;20419;-83
2022/08/18 01:15:14;;;;;;;11.68;7.57;;;;;;;18.21;100.00;100459.72;5051292;28;20444;-83
2022/08/18 01:23:51;;;;;;;11.48;7.30;;;;;;;18.08;100.00;100444.28;4917431;29;20427;-83
2022/08/18 01:26:25;;;;;;;10.52;7.15;;;;;;;18.04;100.00;100441.41;4919536;29;20434;-83
2022/08/18 01:29:05;;;;;;;10.32;7.28;;;;;;;18.00;100.00;100451.47;4963418;28;20794;-84
2022/08/18 01:31:41;;;;;;;11.57;7.00;;;;;;;17.96;100.00;100443.06;5025165;28;20419;-84
2022/08/18 01:34:14;;;;;;;9.85;7.00;;;;;;;18.01;100.00;100444.81;5027808;28;20439;-83
2022/08/18 01:36:51;;;;;;;11.13;7.03;;;;;;;17.93;100.00;100449.25;5029410;28;20429;-85
2022/08/18 01:39:26;;;;;;;9.18;6.28;;;;;;;17.90;100.00;100443.56;5029014;28;20961;-84
2022/08/18 01:42:00;;;;;;;12.80;6.78;;;;;;;17.92;100.00;100439.38;5013917;28;20435;-84
2022/08/18 01:44:33;;;;;;;12.27;6.47;;;;;;;17.84;100.00;100437.44;5030427;28;20440;-83
2022/08/18 01:47:06;;;;;;;10.40;6.80;;;;;;;17.72;100.00;100423.63;5024956;28;20425;-84
2022/08/18 01:49:41;;;;;;;9.18;6.18;;;;;;;17.84;100.00;100429.19;5021974;28;20409;-84
2022/08/18 01:52:19;;;;;;;9.07;6.15;;;;;;;17.80;100.00;100425.50;5035247;28;20759;-85
2022/08/18 01:54:55;;;;;;;8.17;5.73;;;;;;;17.75;100.00;100426.50;5031433;28;20423;-85
2022/08/18 01:57:23;;;;;;;8.80;5.70;;;;;;;17.75;100.00;100418.25;5032281;28;20771;-85
2022/08/18 01:59:51;;;;;;;8.50;5.35;;;;;;;17.80;100.00;100425.50;5032451;28;20419;-85
2022/08/18 02:02:27;;;;;;;10.18;5.40;;;;;;;17.81;100.00;100422.41;5032276;28;20415;-85
2022/08/18 02:05:05;;;;;;;9.07;5.22;;;;;;;17.78;100.00;100423.09;5016088;28;20430;-84
2022/08/18 02:07:38;;;;;;;10.40;8.40;;;;;;;17.91;100.00;100428.66;5032381;28;20427;-85
2022/08/18 02:10:13;;;;;;;9.18;5.20;;;;;;;17.78;100.00;100414.81;5040083;28;20413;-86
2022/08/18 02:12:42;;;;;;;7.75;5.32;;;;;;;17.85;100.00;100433.56;5024440;28;20430;-85
2022/08/18 02:15:15;;;;;;;9.20;5.45;;;;;;;17.83;100.00;100428.41;5016032;28;20752;-82
2022/08/18 02:17:49;;;;;;;12.63;5.55;;;;;;;17.74;100.00;100424.91;5032304;28;20431;-85
2022/08/18 02:20:22;;;;;;;8.68;5.18;;;;;;;17.73;100.00;100423.31;5033809;28;20482;-86
2022/08/18 02:22:57;;;;;;;8.43;5.28;;;;;;;17.75;100.00;100423.75;5015893;28;20427;-85
2022/08/18 02:25:27;;;;;;;10.68;5.68;;;;;;;17.71;100.00;100431.06;5031853;28;20907;-85
2022/08/18 02:28:00;;;;;;;8.60;5.40;;;;;;;17.79;100.00;100426.66;5015924;28;20423;-86
2022/08/18 02:30:28;;;;;;;9.25;5.50;;;;;;;17.79;100.00;100424.72;5015939;28;20434;-85
2022/08/18 02:33:01;;;;;;;10.05;5.40;;;;;;;17.78;100.00;100427.81;5033867;28;20435;-84
2022/08/18 02:35:35;;;;;;;8.60;5.28;;;;;;;17.80;100.00;100431.00;5031191;28;20427;-86
2022/08/18 02:38:08;;;;;;;8.75;5.55;;;;;;;17.75;100.00;100432.03;5032266;28;20422;-86
2022/08/18 02:40:38;;;;;;;8.43;5.25;;;;;;;17.77;100.00;100435.25;5015258;28;20423;-85
2022/08/18 02:43:11;;;;;;;12.48;5.80;;;;;;;17.77;100.00;100442.69;5015768;28;20407;-85
2022/08/18 02:45:44;;;;;;;9.00;5.32;;;;;;;17.79;100.00;100427.47;5031922;28;20427;-84
2022/08/18 02:48:20;;;;;;;8.50;5.55;;;;;;;17.83;100.00;100422.91;5031256;28;20430;-85
2022/08/18 02:51:00;;;;;;;11.43;5.87;;;;;;;17.85;100.00;100426.09;5031636;28;20914;-87
2022/08/18 02:53:28;;;;;;;10.52;5.60;;;;;;;17.86;100.00;100424.19;5031723;28;20418;-85
2022/08/18 02:56:07;;;;;;;8.73;5.40;;;;;;;17.87;100.00;100414.78;5015486;28;20430;-84
2022/08/18 02:58:36;;;;;;;11.25;6.07;;;;;;;17.87;100.00;100416.72;5031298;28;20414;-86
2022/08/18 03:01:09;;;;;;;7.63;5.60;;;;;;;17.76;100.00;100402.53;5031379;28;20411;-85
2022/08/18 03:03:42;;;;;;;9.32;5.63;;;;;;;17.87;100.00;100417.53;5014441;28;20429;-85
2022/08/18 03:06:16;;;;;;;9.07;5.90;;;;;;;17.88;100.00;100412.81;5034657;28;20782;-84
2022/08/18 03:08:50;;;;;;;9.25;6.10;;;;;;;17.94;100.00;100417.81;5051415;28;20429;-84
2022/08/18 03:11:22;;;;;;;10.80;5.97;;;;;;;17.90;100.00;100416.84;5051077;28;20428;-84
2022/08/18 03:13:56;;;;;;;10.38;6.00;;;;;;;17.83;100.00;100408.34;5052846;28;20779;-83
2022/08/18 03:16:31;;;;;;;10.95;6.60;;;;;;;17.78;100.00;100417.59;5051631;28;20409;-84
2022/08/18 03:19:05;;;;;;;14.38;6.70;;;;;;;17.76;100.00;100414.38;5050897;28;20426;-84
2022/08/18 03:21:34;;;;;;;11.68;7.15;;;;;;;17.72;100.00;100409.84;5023000;28;20412;-84
2022/08/18 03:24:08;;;;;;;12.25;6.70;;;;;;;17.80;100.00;100420.00;5035511;28;20411;-85
2022/08/18 03:26:41;;;;;;;10.65;6.45;;;;;;;17.79;100.00;100421.94;5014685;28;20420;-84
2022/08/18 03:29:14;;;;;;;8.35;6.32;;;;;;;17.67;100.00;100417.16;5032536;28;20451;-83
2022/08/18 03:31:44;;;;;;;11.55;7.05;;;;;;;17.67;100.00;100417.16;5014893;28;20419;-84
2022/08/18 03:34:19;;;;;;;9.80;6.53;;;;;;;17.57;100.00;100425.03;5032724;28;20411;-84
2022/08/18 03:36:52;;;;;;;10.02;6.80;;;;;;;17.46;100.00;100425.41;5032516;28;20485;-84
2022/08/18 03:39:26;;;;;;;14.13;7.20;;;;;;;17.40;100.00;100429.50;5014378;28;20419;-84
2022/08/18 03:42:01;;;;;;;13.70;7.60;;;;;;;17.36;100.00;100423.06;5030667;28;20425;-84
2022/08/18 03:44:31;;;;;;;10.50;7.17;;;;;;;17.42;100.00;100431.91;5014173;28;20412;-84
2022/08/18 03:47:08;;;;;;;12.00;6.93;;;;;;;17.40;100.00;100432.25;5032111;28;20423;-84
2022/08/18 03:49:41;;;;;;;10.90;6.82;;;;;;;17.32;100.00;100416.59;5014436;28;20427;-84
2022/08/18 03:52:10;;;;;;;10.82;7.03;;;;;;;17.40;100.00;100429.50;5014148;28;20433;-83
2022/08/18 03:54:43;;;;;;;11.13;7.20;;;;;;;17.41;100.00;100439.34;5030293;28;20418;-84
2022/08/18 03:57:18;;;;;;;13.88;7.78;;;;;;;17.40;100.00;100436.94;5030685;28;20410;-84
2022/08/18 04:00:05;;;;;;;10.85;7.50;;;;;;;17.40;100.00;100436.94;5030121;28;20426;-83
2022/08/18 04:02:38;;;;;;;13.45;8.23;;;;;;;17.41;100.00;100442.09;5013767;28;20427;-84
2022/08/18 04:05:12;;;;;;;12.30;7.97;;;;;;;17.36;100.00;100439.56;5030136;28;20420;-84
2022/08/18 04:07:41;;;;;;;11.27;7.68;;;;;;;17.42;100.00;100448.41;5030204;28;20423;-84
2022/08/18 04:10:15;;;;;;;12.10;8.30;;;;;;;17.43;100.00;100452.78;5030426;28;20815;-84
2022/08/18 04:12:50;;;;;;;16.40;8.45;;;;;;;17.39;100.00;100454.59;5013560;28;20761;-84
2022/08/18 04:15:23;;;;;;;11.45;8.40;;;;;;;17.36;100.00;100450.56;5032010;28;20429;-84
2022/08/18 04:17:59;;;;;;;11.30;8.10;;;;;;;17.31;100.00;100442.47;5013949;28;20412;-84
2022/08/18 04:20:27;;;;;;;12.90;8.70;;;;;;;17.26;100.00;100443.47;5029753;28;20414;-84
2022/08/18 04:23:01;;;;;;;12.77;8.37;;;;;;;17.28;100.00;100432.16;5030213;28;20423;-84
2022/08/18 04:25:34;;;;;;;11.88;8.15;;;;;;;17.36;100.00;100445.06;5013608;28;20415;-84
2022/08/18 04:28:04;;;;;;;12.77;8.55;;;;;;;17.32;100.00;100433.91;5013815;28;20812;-85
2022/08/18 04:30:32;;;;;;;13.57;8.82;;;;;;;17.34;100.00;100444.56;5012913;28;20427;-84
2022/08/18 04:33:05;;;;;;;10.82;8.10;;;;;;;17.36;100.00;100444.22;5010328;28;20430;-88
2022/08/18 04:35:38;;;;;;;13.35;8.93;;;;;;;17.39;100.00;100449.88;5013733;28;20950;-85
2022/08/18 04:38:12;;;;;;;13.25;8.50;;;;;;;17.38;100.00;100437.25;5032136;28;20896;-85
2022/08/18 04:40:46;;;;;;;17.95;8.73;;;;;;;17.44;100.00;100438.69;5006963;28;21386;-84
2022/08/18 04:43:20;;;;;;;12.40;8.88;;;;;;;17.45;100.00;100432.03;5019418;28;20426;-85
2022/08/18 04:45:55;;;;;;;11.70;8.70;;;;;;;17.49;100.00;100426.69;5029603;28;20818;-84
2022/08/18 04:48:23;;;;;;;10.30;7.97;;;;;;;17.49;100.00;100421.19;5013266;28;20427;-84
2022/08/18 04:50:56;;;;;;;11.27;8.75;;;;;;;17.54;100.00;100423.75;5031601;28;21066;-84
2022/08/18 04:53:43;;;;;;;12.25;8.57;;;;;;;17.63;100.00;100427.22;5031524;28;20441;-84
2022/08/18 04:56:21;;;;;;;11.95;8.35;;;;;;;17.71;100.00;100427.53;5029939;28;20415;-86
2022/08/18 04:58:58;;;;;;;13.05;8.85;;;;;;;17.70;100.00;100423.94;5015358;28;20941;-86
2022/08/18 05:01:34;;;;;;;12.18;8.25;;;;;;;17.84;100.00;100430.03;5035615;28;20410;-84
2022/08/18 05:04:09;;;;;;;11.48;8.40;;;;;;;17.93;100.00;100437.44;5017644;28;20446;-85
2022/08/18 05:06:43;;;;;;;12.40;8.93;;;;;;;17.81;100.00;100408.66;5033473;28;20423;-85
2022/08/18 05:09:17;;;;;;;13.43;9.20;;;;;;;18.04;100.00;100413.06;5016631;28;20419;-85
2022/08/18 05:11:50;;;;;;;12.65;8.82;;;;;;;18.86;100.00;100415.94;5033863;28;20411;-85
2022/08/18 05:14:25;;;;;;;11.73;8.13;;;;;;;19.90;100.00;100448.03;5035305;28;20453;-85
2022/08/18 05:16:58;;;;;;;11.75;7.60;;;;;;;20.84;100.00;100459.75;5017460;28;20423;-85
2022/08/18 05:19:34;;;;;;;10.30;6.93;;;;;;;21.02;100.00;100462.19;5033373;28;20427;-85
2022/08/18 05:22:07;;;;;;;9.68;6.97;;;;;;;21.16;100.00;100470.03;5017123;28;20434;-86
2022/08/18 05:24:40;;;;;;;9.00;6.65;;;;;;;21.66;100.00;100462.94;5033189;28;20588;-86
2022/08/18 05:27:14;;;;;;;8.80;6.00;;;;;;;21.44;100.00;100469.13;5034392;28;20411;-91
2022/08/18 05:29:49;;;;;;;9.98;6.50;;;;;;;20.52;100.00;100456.06;5034802;28;20419;-86
2022/08/18 05:32:22;;;;;;;8.95;6.40;;;;;;;20.00;100.00;100458.59;5033279;28;20427;-86
2022/08/18 05:34:50;;;;;;;9.68;6.93;;;;;;;19.79;100.00;100463.41;5032581;28;20423;-84
2022/08/18 05:37:32;;;;;;;11.07;7.05;;;;;;;19.64;100.00;100460.25;5034533;28;20805;-85
2022/08/18 05:40:07;;;;;;;10.10;6.68;;;;;;;19.57;100.00;100450.91;5016663;28;20461;-87
2022/08/18 05:42:38;;;;;;;10.63;7.00;;;;;;;19.42;100.00;100438.66;5033087;28;20423;-85
2022/08/18 05:45:11;;;;;;;11.47;6.87;;;;;;;19.45;100.00;100449.78;5032934;28;20411;-86
2022/08/18 05:47:40;;;;;;;11.40;7.15;;;;;;;19.39;100.00;100448.41;5016080;28;20422;-88
2022/08/18 05:50:12;;;;;;;10.93;7.32;;;;;;;19.46;100.00;100443.13;5032923;28;20430;-85
2022/08/18 05:52:57;;;;;;;10.38;6.85;;;;;;;19.56;100.00;100443.81;5033118;28;20429;-87
2022/08/18 05:58:22;;;;;;;12.20;7.10;;;;;;;19.65;100.00;100437.00;5000928;28;20431;-88
2022/08/18 06:01:00;;;;;;;12.85;7.80;;;;;;;19.66;100.00;100427.56;5010684;28;20446;-86
2022/08/18 06:03:34;;;;;;;11.38;7.00;;;;;;;19.76;100.00;100431.81;5023349;28;20423;-86
2022/08/18 06:06:11;;;;;;;12.15;6.88;;;;;;;19.76;100.00;100426.28;4991293;28;20420;-90
2022/08/18 06:08:50;;;;;;;11.88;7.45;;;;;;;19.90;100.00;100438.94;5006398;28;20433;-90
2022/08/18 06:11:24;;;;;;;13.10;7.30;;;;;;;19.87;100.00;100423.84;5004480;28;20432;-87
2022/08/18 06:14:00;;;;;;;13.23;7.80;;;;;;;19.96;100.00;100443.06;4999323;28;20435;-88
2022/08/18 06:16:52;;;;;;;12.43;7.80;;;;;;;19.86;100.00;100436.88;5006434;28;20426;-87
2022/08/18 06:19:37;;;;;;;12.00;7.45;;;;;;;19.88;100.00;100433.75;5019529;28;20441;-89
2022/08/18 06:22:23;;;;;;;10.37;7.47;;;;;;;20.09;100.00;100450.16;5018806;28;20542;-84
2022/08/18 06:25:03;;;;;;;10.55;7.75;;;;;;;20.27;100.00;100453.41;5021497;28;20896;-89
2022/08/18 06:27:54;;;;;;;12.17;7.97;;;;;;;20.53;100.00;100461.25;5020845;28;20505;-88
2022/08/18 06:30:43;;;;;;;12.50;7.80;;;;;;;20.62;100.00;100463.88;5005348;28;21004;-87
2022/08/18 06:33:37;;;;;;;10.37;7.60;;;;;;;20.78;100.00;100466.69;5003860;28;20833;-90
2022/08/18 06:36:18;;;;;;;10.23;7.70;;;;;;;20.71;100.00;100464.56;5017803;28;20804;-87
2022/08/18 06:39:01;;;;;;;10.30;7.90;;;;;;;20.94;100.00;100476.97;5022804;28;20423;-91
2022/08/18 06:41:36;;;;;;;10.95;7.53;;;;;;;20.92;100.00;100473.75;5005532;28;21045;-87
2022/08/18 06:44:12;;;;;;;10.52;7.15;;;;;;;20.78;100.00;100443.75;5006826;28;20419;-89
2022/08/18 06:46:49;;;;;;;10.70;7.65;;;;;;;21.08;100.00;100469.03;5005212;28;20423;-90
2022/08/18 06:49:28;;;;;;;11.32;8.40;;;;;;;21.06;100.00;100466.63;5005825;28;20427;-90
2022/08/18 06:52:19;;;;;;;12.43;7.87;;;;;;;21.08;100.00;100466.28;5020345;28;20432;-89
2022/08/18 06:54:54;;;;;;;11.80;7.93;;;;;;;21.17;100.00;100468.84;5020389;28;20430;-89
2022/08/18 06:57:32;;;;;;;10.07;7.50;;;;;;;21.11;100.00;100484.91;5017952;28;20429;-86
2022/08/18 07:00:24;;;;;;;11.90;8.00;;;;;;;21.32;100.00;100475.53;5019963;28;20509;-89
2022/08/18 07:02:57;;;;;;;11.05;7.95;;;;;;;21.21;100.00;100472.50;5018540;28;20785;-88
2022/08/18 07:05:33;;;;;;;10.48;7.57;;;;;;;21.14;100.00;100467.59;5020372;28;20436;-89
2022/08/18 07:08:13;;;;;;;12.40;7.40;;;;;;;21.13;100.00;100474.31;5003995;28;20423;-89
2022/08/18 07:10:49;;;;;;;9.27;6.97;;;;;;;20.82;100.00;100466.78;5000616;28;20434;-89
2022/08/18 07:13:25;;;;;;;12.10;7.93;;;;;;;20.93;100.00;100487.22;5019880;28;20442;-88
2022/08/18 07:15:55;;;;;;;11.63;7.93;;;;;;;20.93;100.00;100492.75;5024650;28;20434;-83
2022/08/18 07:18:28;;;;;;;11.43;8.20;;;;;;;20.97;100.00;100492.88;5023864;28;20931;-86
2022/08/18 07:21:03;;;;;;;13.35;8.70;;;;;;;20.90;100.00;100501.78;4990770;28;20903;-88
2022/08/18 07:23:39;;;;;;;10.90;7.85;;;;;;;20.89;100.00;100509.28;5002297;28;20444;-85
2022/08/18 07:26:11;;;;;;;11.05;8.38;;;;;;;20.89;100.00;100505.69;4985692;28;20443;-87
2022/08/18 07:28:43;;;;;;;11.13;8.27;;;;;;;20.79;100.00;100506.22;4984286;28;20436;-84
2022/08/18 07:31:36;;;;;;;12.95;8.82;;;;;;;20.94;100.00;100504.66;5008335;28;20783;-87
2022/08/18 07:34:15;;;;;;;12.88;8.73;;;;;;;21.19;100.00;100508.84;4993282;28;20417;-85
2022/08/18 07:36:55;;;;;;;11.70;8.65;;;;;;;21.28;100.00;100499.56;4992680;28;20442;-88
2022/08/18 07:39:59;;;;;;;12.18;9.07;;;;;;;21.39;100.00;100503.38;5015618;28;20429;-86
2022/08/18 07:42:38;;;;;;;12.20;8.73;;;;;;;21.29;100.00;100506.72;5006892;28;20780;-86
2022/08/18 07:45:19;;;;;;;11.80;9.25;;;;;;;21.24;100.00;100505.03;5000172;28;20937;-88
2022/08/18 07:47:56;;;;;;;11.35;8.32;;;;;;;21.22;100.00;100510.09;4991711;28;20435;-88
2022/08/18 07:50:38;;;;;;;12.27;8.52;;;;;;;21.26;100.00;100512.97;4982096;28;20434;-88
2022/08/18 07:53:16;;;;;;;15.13;9.57;;;;;;;21.39;100.00;100508.94;5002371;28;20819;-87
2022/08/18 07:55:57;;;;;;;11.90;8.50;;;;;;;21.55;100.00;100522.81;5003314;28;20427;-89
2022/08/18 07:58:34;;;;;;;13.35;9.18;;;;;;;21.47;100.00;100530.09;4979659;28;20425;-87
2022/08/18 08:01:18;;;;;;;11.80;9.02;;;;;;;21.66;100.00;100526.63;4997263;28;20431;-87
2022/08/18 08:03:58;;;;;;;13.43;9.25;;;;;;;21.85;100.00;100514.81;4994688;28;22453;-88
2022/08/18 08:06:32;;;;;;;14.13;9.73;;;;;;;21.83;100.00;100524.63;4984583;28;20434;-87
2022/08/18 08:09:12;;;;;;;13.87;9.40;;;;;;;21.95;100.00;100529.28;5006712;28;20796;-88
2022/08/18 08:11:55;;;;;;;11.40;9.38;;;;;;;22.13;100.00;100529.66;4998329;28;20923;-89
2022/08/18 08:14:40;;;;;;;12.23;9.27;;;;;;;22.16;100.00;100532.50;4985364;28;20434;-87
2022/08/18 08:17:24;;;;;;;12.45;9.45;;;;;;;22.29;100.00;100537.91;5013245;28;20432;-87
2022/08/18 08:20:07;;;;;;;11.68;8.25;;;;;;;22.13;100.00;100538.78;5000656;28;20878;-86
2022/08/18 08:22:52;;;;;;;15.73;9.00;;;;;;;22.14;100.00;100537.63;5015987;28;21055;-87
2022/08/18 08:25:31;;;;;;;10.57;8.45;;;;;;;22.12;100.00;100539.13;5018929;28;20441;-86
2022/08/18 08:28:19;;;;;;;12.05;8.98;;;;;;;21.85;100.00;100550.03;5018603;28;20438;-85
2022/08/18 08:30:55;;;;;;;12.38;9.07;;;;;;;21.70;100.00;100551.66;5010515;28;20432;-86
2022/08/18 08:33:36;;;;;;;12.38;8.93;;;;;;;22.03;100.00;100550.44;5036692;28;20452;-88
2022/08/18 08:36:16;;;;;;;11.40;9.00;;;;;;;22.06;100.00;100558.81;4997599;28;20908;-84
2022/08/18 08:38:47;;;;;;;13.23;8.95;;;;;;;21.96;100.00;100553.84;5014475;28;20439;-87
2022/08/18 08:41:30;;;;;;;11.53;8.83;;;;;;;22.12;100.00;100558.53;5003792;28;20437;-86
2022/08/18 08:44:07;;;;;;;12.00;8.50;;;;;;;22.38;100.00;100561.50;5020170;28;20427;-87
2022/08/18 08:46:48;;;;;;;12.68;8.90;;;;;;;22.26;100.00;100567.16;5003141;28;20448;-87
2022/08/18 08:49:29;;;;;;;12.23;8.95;;;;;;;22.06;100.00;100560.78;5005281;28;20437;-88
2022/08/18 08:52:07;;;;;;;12.25;10.18;;;;;;;21.66;100.00;100567.38;5003413;28;20427;-87
2022/08/18 08:54:46;;;;;;;15.38;11.40;;;;;;;21.66;100.00;100557.09;5021410;28;20419;-88
2022/08/18 08:57:26;;;;;;;15.48;12.65;;;;;;;21.48;100.00;100573.22;5006588;28;20436;-86
2022/08/18 09:00:02;;;;;;;17.73;13.80;;;;;;;21.22;100.00;100565.44;5006932;28;20775;-86
2022/08/18 09:03:09;;;;;;;19.77;15.25;;;;;;;21.10;100.00;100568.28;5015664;28;20424;-87
2022/08/18 09:05:52;;;;;;;20.80;16.50;;;;;;;21.16;100.00;100572.41;5023382;28;20425;-86
2022/08/18 09:08:42;;;;;;;25.40;18.42;;;;;;;21.13;100.00;100573.09;5039278;28;20431;-87
2022/08/18 09:11:32;;;;;;;29.10;21.13;;;;;;;21.04;100.00;100574.06;5040296;28;20429;-87
2022/08/18 09:14:22;;;;;;;30.55;21.17;;;;;;;20.78;100.00;100571.78;5039700;28;20401;-86
2022/08/18 09:17:11;;;;;;;33.75;22.23;;;;;;;20.77;100.00;100574.88;5038344;28;20429;-86
2022/08/18 09:20:00;;;;;;;37.33;22.48;;;;;;;20.52;100.00;100570.25;5035236;28;20430;-87
2022/08/18 09:22:46;;;;;;;33.63;22.15;;;;;;;20.66;100.00;100563.50;5014290;28;20434;-88
2022/08/18 09:25:45;;;;;;;34.00;22.03;;;;;;;20.62;100.00;100568.13;4999382;28;20460;-90
2022/08/18 09:28:16;;;;;;;35.25;22.75;;;;;;;20.81;100.00;100570.25;5021802;28;20410;-88
2022/08/18 09:31:09;;;;;;;34.10;22.45;;;;;;;20.68;100.00;100578.59;4999729;28;20412;-87
2022/08/18 09:33:55;;;;;;;37.60;23.55;;;;;;;20.66;100.00;100567.06;5014914;28;20445;-87
2022/08/18 09:36:42;;;;;;;33.22;23.10;;;;;;;20.70;100.00;100564.44;5018600;28;20906;-88
2022/08/18 09:42:16;;;;;;;34.25;20.70;;;;;;;20.64;100.00;100566.59;5033978;28;20422;-86
2022/08/18 09:45:07;;;;;;;28.15;19.67;;;;;;;20.69;100.00;100573.91;5024187;28;20709;-86
2022/08/18 09:48:00;;;;;;;29.42;19.38;;;;;;;20.63;100.00;100578.03;5017645;28;20452;-86
2022/08/18 09:50:52;;;;;;;28.95;18.42;;;;;;;20.65;100.00;100579.28;5040907;28;20421;-87
2022/08/18 09:53:54;;;;;;;29.55;19.35;;;;;;;20.62;100.00;100581.94;5038650;28;20988;-88
2022/08/18 09:57:00;;;;;;;28.70;18.85;;;;;;;20.72;100.00;100581.47;5001613;28;20435;-89
2022/08/18 10:00:18;;;;;;;27.80;17.90;;;;;;;20.68;100.00;100580.56;5015939;28;20438;-87
2022/08/18 10:03:17;;;;;;;28.33;18.20;;;;;;;20.45;100.00;100581.06;4993565;28;20434;-88
2022/08/18 10:06:04;;;;;;;28.35;18.17;;;;;;;20.46;100.00;100573.59;5001790;28;20436;-86
2022/08/18 10:09:12;;;;;;;27.65;17.90;;;;;;;20.75;100.00;100577.22;5017747;28;20904;-87
2022/08/18 10:12:04;;;;;;;28.63;18.27;;;;;;;20.85;100.00;100576.69;5019092;28;20420;-87
2022/08/18 10:14:52;;;;;;;27.85;18.58;;;;;;;20.79;100.00;100587.22;5002749;28;21043;-86
2022/08/18 10:17:41;;;;;;;28.25;18.60;;;;;;;20.57;100.00;100563.66;5003057;28;20876;-86
2022/08/18 10:20:26;;;;;;;28.88;18.40;;;;;;;20.91;100.00;100591.91;5004639;28;20417;-85
2022/08/18 10:23:00;;;;;;;30.70;19.40;;;;;;;20.95;100.00;100587.28;5005534;28;20425;-88
2022/08/18 10:25:36;;;;;;;29.23;18.52;;;;;;;21.03;100.00;100585.50;5021222;28;20427;-86
2022/08/18 10:28:06;;;;;;;29.38;19.10;;;;;;;21.03;100.00;100591.03;5017732;28;20424;-87
2022/08/18 10:31:01;;;;;;;27.02;17.80;;;;;;;21.15;100.00;100585.44;5022794;28;20436;-87
2022/08/18 10:34:03;;;;;;;26.55;17.63;;;;;;;21.19;100.00;100591.88;5005542;28;20423;-88
2022/08/18 10:36:45;;;;;;;26.83;16.90;;;;;;;20.85;100.00;100591.34;5019051;28;21042;-86
2022/08/18 10:39:17;;;;;;;27.17;16.95;;;;;;;21.18;100.00;100592.22;5018941;28;20456;-87
2022/08/18 10:42:02;;;;;;;27.30;17.38;;;;;;;21.28;100.00;100594.47;5003260;28;20441;-88
2022/08/18 10:44:42;;;;;;;28.73;18.75;;;;;;;21.43;100.00;100598.41;5010241;28;20428;-88
2022/08/18 10:47:21;;;;;;;28.77;18.92;;;;;;;21.37;100.00;100586.78;5002392;28;20497;-88
2022/08/18 10:49:55;;;;;;;29.30;19.75;;;;;;;21.43;100.00;100590.09;5041927;28;20429;-87
2022/08/18 10:52:45;;;;;;;30.38;21.50;;;;;;;21.64;100.00;100595.44;5043779;28;20758;-88
2022/08/18 10:55:39;;;;;;;29.52;20.65;;;;;;;21.72;100.00;100599.16;5002865;28;20433;-86
2022/08/18 10:58:45;;;;;;;31.60;20.35;;;;;;;21.56;100.00;100577.81;5020312;28;20436;-87
2022/08/18 11:01:42;;;;;;;29.30;20.27;;;;;;;21.79;100.00;100599.31;4996196;28;21240;-88
2022/08/18 11:04:24;;;;;;;29.52;21.08;;;;;;;21.82;100.00;100584.78;5000336;28;20423;-88
2022/08/18 11:07:01;;;;;;;29.73;20.03;;;;;;;21.93;100.00;100587.81;5002055;28;20422;-86
2022/08/18 11:09:36;;;;;;;29.95;20.63;;;;;;;22.02;100.00;100593.16;5020819;28;20426;-87
2022/08/18 11:12:13;;;;;;;30.37;20.93;;;;;;;22.21;100.00;100598.75;5003045;28;23576;-88
2022/08/18 11:15:05;;;;;;;25.03;18.77;;;;;;;22.25;100.00;100599.63;5006462;28;20436;-88
2022/08/18 11:17:52;;;;;;;27.83;18.98;;;;;;;22.23;100.00;100599.19;5015149;28;20430;-88
2022/08/18 11:20:30;;;;;;;26.58;18.75;;;;;;;22.23;100.00;100595.59;5018074;28;20456;-88
2022/08/18 11:23:04;;;;;;;25.42;18.00;;;;;;;22.30;100.00;100594.97;5017449;28;20435;-87
2022/08/18 11:25:37;;;;;;;24.60;17.55;;;;;;;21.91;100.00;100565.19;5019227;28;20430;-87
2022/08/18 11:28:19;;;;;;;24.27;17.15;;;;;;;22.15;100.00;100585.53;5018794;28;20426;-86
2022/08/18 11:30:51;;;;;;;24.38;17.77;;;;;;;22.38;100.00;100583.69;5021581;28;20421;-87
2022/08/18 11:33:21;;;;;;;23.52;17.55;;;;;;;22.23;100.00;100588.13;5002357;28;20434;-87
2022/08/18 11:35:58;;;;;;;24.33;17.80;;;;;;;22.33;100.00;100575.66;5021270;28;20426;-86
2022/08/18 11:38:33;;;;;;;23.63;16.73;;;;;;;22.46;100.00;100576.34;5019999;28;20421;-88
2022/08/18 11:41:18;;;;;;;24.58;16.77;;;;;;;22.70;100.00;100580.00;5018825;28;20421;-88
2022/08/18 11:43:47;;;;;;;22.80;16.27;;;;;;;22.50;100.00;100581.97;5003911;28;20436;-87
2022/08/18 11:46:24;;;;;;;23.98;16.55;;;;;;;22.73;100.00;100576.47;5011439;28;20429;-87
2022/08/18 11:48:53;;;;;;;26.27;18.52;;;;;;;22.96;100.00;100586.84;5027316;28;20930;-89
2022/08/18 11:51:30;;;;;;;24.75;18.67;;;;;;;22.75;100.00;100568.63;5006261;28;20448;-88
2022/08/18 11:54:21;;;;;;;25.30;18.95;;;;;;;23.08;100.00;100578.38;5001292;28;20448;-85
2022/08/18 11:57:39;;;;;;;24.92;17.15;;;;;;;23.11;100.00;100572.06;4984036;28;20424;-86
2022/08/18 12:00:40;;;;;;;23.35;17.73;;;;;;;23.20;100.00;100571.84;4996449;28;20446;-86
2022/08/18 12:03:24;;;;;;;23.00;17.58;;;;;;;23.20;100.00;100575.44;4989168;28;20947;-87
2022/08/18 12:06:14;;;;;;;24.27;17.80;;;;;;;23.33;100.00;100578.06;4999125;28;20437;-87
2022/08/18 12:08:52;;;;;;;22.17;16.65;;;;;;;23.62;100.00;100573.00;4999233;28;21013;-86
2022/08/18 12:11:29;;;;;;;21.33;16.00;;;;;;;23.47;100.00;100567.19;5006603;28;20439;-87